METAR Data

Data at: 1133 UTC 24 May 2022

METAR for:KLCI (Laconia Muni, NH, US)
Text:KLCI 241056Z AUTO 06009KT 10SM CLR 10/02 A3036 RMK AO2 SLP282 T01000017
Temperature: 10.0°C ( 50°F)
Dewpoint: 1.7°C ( 35°F) [RH = 56%]
Pressure (altimeter):30.36 inches Hg (1028.2 mb) [Sea level pressure: 1028.2 mb]
Winds:from the ENE (60 degrees) at 10 MPH (9 knots; 4.6 m/s)
Visibility:10 or more sm (16+ km)
Ceiling:at least 12,000 feet AGL
Clouds:sky clear below 12,000 feet AGL
QC Flag:automated observation with no human augmentation